Terminal Aerodrome Forecast
Issued by NWS

Home | Current Version | Previous Version | Text Only | Print | Product List | Glossary Off
Versions: 1 2 3 4 5 6 7 8 9 10 11 12 13 14 15 16 17

000
FTUS43 KFGF 262339
TAFBJI
TAF
KBJI 262339Z 2700/2724 26008KT P6SM SCT050
     FM270200 24004KT P6SM SCT250
     FM271100 00000KT P6SM SCT250
     FM271700 13005KT P6SM VCSH BKN080
     FM272300 11007KT P6SM -SHRA OVC040=

USA.gov is the U.S. government's official web portal to all federal, state and local government web resources and services.